Terminal Aerodrome Forecast
Issued by NWS

Home | Current Version | Previous Version | Graphics & Text | Print | Product List | Glossary On
Versions: 1 2 3 4 5 6 7 8 9 10 11 12 13 14 15 16 17 18 19
000
FTUS43 KFGF 191700
TAFBJI
TAF
KBJI 191738Z 1918/2018 33007KT P6SM BKN035
     FM200100 VRB03KT P6SM SKC
     FM201600 14006KT P6SM SCT040=

USA.gov is the U.S. government's official web portal to all federal, state and local government web resources and services.